Time;durP1;ratioP1;P1;durP2;ratioP2;P2;SDS_P1;SDS_P2;PMS_P1;PMS_P2;Temp;Humidity;BMP_temperature;BMP_pressure;BME280_temperature;BME280_humidity;BME280_pressure;Samples;Min_cycle;Max_cycle;Signal;HPM_P1;HPM_P2
2022/04/04 00:01:23;;;;;;;5.22;2.40;;;;;;;12.31;35.26;101791.59;4974890;28;20490;-67
2022/04/04 00:03:49;;;;;;;5.78;2.70;;;;;;;12.27;35.47;101789.13;4974511;28;20454;-68
2022/04/04 00:06:14;;;;;;;4.00;2.72;;;;;;;12.25;35.52;101785.69;4974835;28;20050;-68
2022/04/04 00:08:40;;;;;;;5.80;2.97;;;;;;;12.20;35.52;101779.81;4973503;28;20062;-67
2022/04/04 00:11:06;;;;;;;4.25;2.15;;;;;;;12.16;35.26;101775.66;4973265;28;20050;-68
2022/04/04 00:13:32;;;;;;;5.30;2.22;;;;;;;12.15;35.48;101781.97;4974868;28;20073;-67
2022/04/04 00:15:57;;;;;;;10.07;2.53;;;;;;;12.13;35.60;101775.88;4974382;28;20031;-68
2022/04/04 00:18:23;;;;;;;4.85;2.33;;;;;;;12.11;36.07;101767.09;4974378;28;20034;-68
2022/04/04 00:20:51;;;;;;;4.10;2.35;;;;;;;12.08;36.07;101761.94;4974344;28;20110;-67
2022/04/04 00:23:17;;;;;;;3.03;2.38;;;;;;;12.06;35.40;101766.56;4974194;28;20038;-66
2022/04/04 00:25:44;;;;;;;6.72;2.55;;;;;;;12.05;35.55;101764.88;4974364;28;20041;-68
2022/04/04 00:28:09;;;;;;;6.35;2.47;;;;;;;12.03;36.12;101763.28;4974253;28;20056;-68
2022/04/04 00:30:36;;;;;;;4.70;2.50;;;;;;;12.02;35.92;101757.03;4974499;28;20107;-68
2022/04/04 00:33:02;;;;;;;4.22;2.83;;;;;;;12.01;36.27;101755.31;4972248;28;20026;-68
2022/04/04 00:35:27;;;;;;;4.05;2.10;;;;;;;12.01;36.26;101755.31;4974077;28;20027;-68
2022/04/04 00:37:53;;;;;;;4.70;2.55;;;;;;;12.00;35.83;101750.94;4974260;28;20492;-68
2022/04/04 00:40:18;;;;;;;3.35;2.72;;;;;;;11.98;35.98;101752.00;4974095;28;20396;-67
2022/04/04 00:42:44;;;;;;;3.65;2.30;;;;;;;11.96;35.82;101746.75;4973978;28;20063;-68
2022/04/04 00:45:09;;;;;;;5.60;2.40;;;;;;;11.96;35.71;101746.75;4974036;28;20042;-68
2022/04/04 00:47:34;;;;;;;3.72;2.13;;;;;;;11.94;35.55;101742.47;4972876;28;20077;-67
2022/04/04 00:50:00;;;;;;;3.42;2.50;;;;;;;11.90;35.96;101746.34;4957570;28;20035;-66
2022/04/04 00:52:26;;;;;;;6.47;2.22;;;;;;;11.86;35.70;101739.53;4954626;28;20381;-67
2022/04/04 00:54:51;;;;;;;4.90;2.55;;;;;;;11.81;35.98;101745.22;4954799;28;20035;-67
2022/04/04 00:57:16;;;;;;;4.63;2.75;;;;;;;11.77;35.56;101737.50;4954532;28;20465;-68
2022/04/04 00:59:42;;;;;;;4.18;2.40;;;;;;;11.75;35.93;101736.78;4937258;29;20057;-68
2022/04/04 01:02:08;;;;;;;4.05;2.13;;;;;;;11.71;35.96;101728.09;4953165;29;20463;-67
2022/04/04 01:04:33;;;;;;;4.03;2.17;;;;;;;11.68;35.90;101739.03;4954470;28;20031;-67
2022/04/04 01:07:00;;;;;;;4.50;2.65;;;;;;;11.66;35.78;101730.22;4953506;29;20031;-67
2022/04/04 01:09:25;;;;;;;3.92;2.42;;;;;;;11.65;36.27;101725.81;4966883;28;20496;-67
2022/04/04 01:12:01;;;;;;;2.92;2.60;;;;;;;11.63;36.13;101733.16;4973854;28;20030;-68
2022/04/04 01:14:26;;;;;;;3.22;2.13;;;;;;;11.63;36.14;101727.78;4972587;28;20089;-66
2022/04/04 01:16:51;;;;;;;4.40;1.98;;;;;;;11.63;36.61;101720.59;4973773;28;20038;-68
2022/04/04 01:19:17;;;;;;;6.05;2.38;;;;;;;11.63;36.45;101711.69;4972404;28;20054;-68
2022/04/04 01:21:42;;;;;;;4.28;2.53;;;;;;;11.64;36.21;101716.09;4973585;28;20109;-68
2022/04/04 01:24:15;;;;;;;4.82;2.97;;;;;;;11.63;36.38;101706.31;4961869;28;20448;-68
2022/04/04 01:26:45;;;;;;;2.80;2.25;;;;;;;11.63;36.33;101706.31;4954353;28;20039;-68
2022/04/04 01:29:11;;;;;;;4.10;2.30;;;;;;;11.60;36.19;101702.03;4954305;28;20122;-68
2022/04/04 01:31:36;;;;;;;4.93;2.53;;;;;;;11.61;36.40;101697.53;4953168;28;20062;-67
2022/04/04 01:34:02;;;;;;;4.28;2.53;;;;;;;11.60;36.50;101695.81;4954129;28;20027;-67
2022/04/04 01:36:27;;;;;;;3.97;2.60;;;;;;;11.55;36.22;101697.97;4953139;29;20036;-68
2022/04/04 01:38:52;;;;;;;6.18;2.40;;;;;;;11.50;36.33;101684.88;4952898;29;20164;-68
2022/04/04 01:41:18;;;;;;;3.05;2.15;;;;;;;11.47;36.07;101679.75;4954239;28;20035;-67
2022/04/04 01:43:43;;;;;;;5.20;2.60;;;;;;;11.45;36.07;101675.47;4956077;28;20034;-68
2022/04/04 01:49:04;;;;;;;6.65;2.75;;;;;;;11.40;36.32;101677.63;4957434;28;20051;-67
2022/04/04 01:51:31;;;;;;;6.45;2.42;;;;;;;11.39;36.33;101674.09;4957922;28;20028;-67
2022/04/04 01:53:57;;;;;;;3.80;2.28;;;;;;;11.38;36.91;101664.34;4964275;28;20095;-68
2022/04/04 01:56:23;;;;;;;5.97;2.67;;;;;;;11.38;36.48;101667.03;4975893;28;20499;-67
2022/04/04 01:58:48;;;;;;;6.22;2.67;;;;;;;11.38;37.59;101663.50;4977289;28;20081;-67
2022/04/04 02:01:15;;;;;;;6.43;2.63;;;;;;;11.37;37.21;101657.25;4975898;28;20043;-67
2022/04/04 02:03:42;;;;;;;4.20;3.28;;;;;;;11.39;36.82;101655.31;4976933;28;20030;-67
2022/04/04 02:06:08;;;;;;;8.23;2.88;;;;;;;11.38;36.50;101644.72;4977239;28;20516;-67
2022/04/04 02:08:33;;;;;;;6.43;2.97;;;;;;;11.40;36.80;101650.81;4972973;28;20037;-66
2022/04/04 02:11:00;;;;;;;8.13;2.50;;;;;;;11.40;36.73;101640.09;4957695;28;20503;-67
2022/04/04 02:13:25;;;;;;;3.85;2.78;;;;;;;11.38;36.15;101642.03;4957497;28;20110;-67
2022/04/04 02:15:56;;;;;;;5.78;2.95;;;;;;;11.35;36.67;101628.84;4956420;29;20545;-67
2022/04/04 02:18:22;;;;;;;3.97;2.63;;;;;;;11.35;36.42;101636.91;4957723;28;20027;-67
2022/04/04 02:20:48;;;;;;;6.85;3.80;;;;;;;11.31;37.00;101627.34;4957356;28;20094;-68
2022/04/04 02:23:17;;;;;;;5.45;3.20;;;;;;;11.31;36.50;101630.91;4957322;28;20517;-67
2022/04/04 02:25:44;;;;;;;4.85;3.15;;;;;;;11.32;36.63;101626.41;4957376;28;20031;-68
2022/04/04 02:28:09;;;;;;;5.88;3.58;;;;;;;11.30;37.01;101618.47;4955932;28;20035;-67
2022/04/04 02:30:35;;;;;;;8.20;3.85;;;;;;;11.28;36.55;101622.25;4957090;28;20374;-67
2022/04/04 02:33:00;;;;;;;7.03;3.17;;;;;;;11.24;37.24;101618.06;4957357;28;20027;-68
2022/04/04 02:35:26;;;;;;;5.55;3.40;;;;;;;11.20;36.78;101608.53;4957401;28;20038;-67
2022/04/04 02:37:51;;;;;;;7.35;3.22;;;;;;;11.16;36.68;101590.97;4957213;28;20035;-68
2022/04/04 02:40:17;;;;;;;6.07;3.58;;;;;;;11.13;36.82;101599.25;4957052;28;20035;-67
2022/04/04 02:42:42;;;;;;;5.20;3.13;;;;;;;11.10;36.84;101601.19;4957397;28;20115;-67
2022/04/04 02:45:08;;;;;;;8.52;3.33;;;;;;;11.05;37.54;101592.59;4956975;28;20031;-67
2022/04/04 02:47:33;;;;;;;5.50;3.13;;;;;;;11.04;36.77;101598.09;4957357;28;20042;-68
2022/04/04 02:49:58;;;;;;;8.55;4.20;;;;;;;11.03;37.38;101583.81;4972684;28;20039;-67
2022/04/04 02:52:24;;;;;;;8.10;3.58;;;;;;;11.01;37.01;101587.59;4976101;28;20038;-68
2022/04/04 02:54:49;;;;;;;10.05;3.58;;;;;;;11.00;36.96;101580.50;4973838;28;20403;-67
2022/04/04 02:57:17;;;;;;;9.60;4.03;;;;;;;10.99;37.39;101571.63;4975986;28;20089;-67
2022/04/04 02:59:44;;;;;;;5.60;3.72;;;;;;;10.98;37.56;101567.22;4976040;28;20102;-67
2022/04/04 03:02:10;;;;;;;6.38;3.90;;;;;;;10.98;37.42;101564.56;4974831;28;20069;-67
2022/04/04 03:04:36;;;;;;;4.18;3.13;;;;;;;10.98;36.90;101552.97;4974864;28;20058;-67
2022/04/04 03:07:02;;;;;;;6.38;3.70;;;;;;;10.99;37.37;101560.06;4975804;28;20027;-67
2022/04/04 03:09:27;;;;;;;5.85;3.60;;;;;;;11.00;37.68;101549.19;4959864;28;20038;-67
2022/04/04 03:11:52;;;;;;;5.80;4.10;;;;;;;10.98;36.72;101542.25;4956559;28;20388;-66
2022/04/04 03:14:18;;;;;;;7.57;3.47;;;;;;;10.97;37.37;101546.75;4956273;29;20027;-66
2022/04/04 03:16:43;;;;;;;7.55;3.65;;;;;;;10.96;37.41;101539.69;4956552;28;20026;-66
2022/04/04 03:19:09;;;;;;;10.02;4.35;;;;;;;10.95;36.91;101532.63;4956292;28;20035;-66
2022/04/04 03:21:34;;;;;;;10.27;4.15;;;;;;;10.94;37.17;101520.16;4956148;28;20027;-66
2022/04/04 03:23:59;;;;;;;6.05;3.65;;;;;;;10.95;37.67;101521.88;4956426;29;20114;-66
2022/04/04 03:26:25;;;;;;;6.40;3.47;;;;;;;10.95;37.23;101510.31;4956651;28;20026;-66
2022/04/04 03:28:50;;;;;;;7.93;4.07;;;;;;;10.92;36.94;101516.75;4956328;28;20449;-66
2022/04/04 03:31:16;;;;;;;8.27;3.75;;;;;;;10.91;37.99;101512.38;4975706;28;20026;-66
2022/04/04 03:33:43;;;;;;;8.77;3.92;;;;;;;10.90;37.83;101496.41;4975234;28;20389;-67
2022/04/04 03:36:10;;;;;;;19.20;4.78;;;;;;;10.90;37.41;101497.25;4975317;28;20023;-66
2022/04/04 03:38:35;;;;;;;7.75;4.57;;;;;;;10.92;37.64;101489.94;4975457;28;20082;-65
2022/04/04 03:41:01;;;;;;;8.75;4.22;;;;;;;10.95;37.58;101494.22;4975265;28;20469;-66
2022/04/04 03:43:26;;;;;;;12.57;4.95;;;;;;;10.96;37.79;101479.88;4975091;28;20119;-66
2022/04/04 03:45:52;;;;;;;13.30;5.60;;;;;;;10.96;37.51;101475.38;4975062;28;20069;-66
2022/04/04 03:48:18;;;;;;;8.80;4.38;;;;;;;10.99;37.50;101475.13;4975474;28;20114;-65
2022/04/04 03:50:45;;;;;;;13.02;5.18;;;;;;;10.99;37.65;101466.22;4975231;28;20493;-66
2022/04/04 03:53:10;;;;;;;12.82;4.53;;;;;;;10.99;37.67;101456.38;4975250;28;20395;-66
2022/04/04 03:55:38;;;;;;;14.10;5.15;;;;;;;11.01;37.46;101462.47;4975007;28;20027;-66
2022/04/04 03:58:04;;;;;;;9.10;4.00;;;;;;;11.02;37.74;101456.16;4974686;28;20130;-67
2022/04/04 04:00:29;;;;;;;14.13;5.18;;;;;;;11.03;37.55;101457.84;4974898;28;20114;-66
2022/04/04 04:02:55;;;;;;;11.23;4.72;;;;;;;11.05;37.36;101447.00;4975066;28;20031;-66
2022/04/04 04:05:21;;;;;;;14.23;4.60;;;;;;;11.08;37.79;101442.25;4975171;28;20077;-66
2022/04/04 04:07:46;;;;;;;19.25;5.50;;;;;;;11.09;37.86;101449.31;4972333;28;20096;-67
2022/04/04 04:10:12;;;;;;;11.55;4.70;;;;;;;11.09;37.54;101445.78;4955530;28;20031;-66
2022/04/04 04:12:39;;;;;;;11.02;3.88;;;;;;;11.06;36.90;101436.16;4955882;28;20106;-66
2022/04/04 04:15:06;;;;;;;9.93;3.78;;;;;;;11.10;37.40;101434.09;4954324;29;20038;-66
2022/04/04 04:17:32;;;;;;;12.70;3.88;;;;;;;11.09;37.72;101427.88;4954076;29;20113;-66
2022/04/04 04:22:41;;;;;;;7.35;3.95;;;;;;;11.09;37.44;101422.50;4955062;29;20037;-66
2022/04/04 04:25:07;;;;;;;8.38;3.13;;;;;;;11.09;37.88;101422.50;4955274;28;20035;-67
2022/04/04 04:27:33;;;;;;;5.13;2.95;;;;;;;11.09;37.30;101422.50;4953751;29;20098;-66
2022/04/04 04:29:59;;;;;;;6.75;3.35;;;;;;;11.11;37.78;101407.16;4937935;29;20034;-66
2022/04/04 04:32:24;;;;;;;8.82;3.33;;;;;;;11.13;37.99;101411.56;4954811;29;20024;-67
2022/04/04 04:34:50;;;;;;;6.65;3.72;;;;;;;11.12;37.91;101408.03;4970705;28;20093;-67
2022/04/04 04:37:21;;;;;;;9.55;3.45;;;;;;;11.12;37.91;101397.28;4974235;28;20122;-67
2022/04/04 04:39:46;;;;;;;6.05;2.72;;;;;;;11.14;38.26;101407.91;4974056;28;20033;-67
2022/04/04 04:42:12;;;;;;;6.50;3.58;;;;;;;11.17;37.77;101394.28;4974239;28;20034;-67
2022/04/04 04:44:37;;;;;;;5.95;3.05;;;;;;;11.19;37.63;101397.69;4974062;28;20034;-67
2022/04/04 04:47:04;;;;;;;7.20;3.28;;;;;;;11.20;37.31;101392.19;4974249;28;20097;-67
2022/04/04 04:49:29;;;;;;;8.05;3.30;;;;;;;11.24;37.18;101392.81;4974214;28;20404;-67
2022/04/04 04:51:55;;;;;;;6.43;2.75;;;;;;;11.24;37.20;101393.66;4974161;28;20051;-67
2022/04/04 04:54:20;;;;;;;5.03;2.65;;;;;;;11.26;37.76;101386.34;4974010;28;20436;-67
2022/04/04 04:56:46;;;;;;;7.68;3.15;;;;;;;11.26;37.57;101381.00;4973860;28;20027;-67
2022/04/04 04:59:13;;;;;;;6.82;2.85;;;;;;;11.29;38.29;101379.88;4974171;28;20073;-68
2022/04/04 05:01:38;;;;;;;12.98;3.78;;;;;;;11.27;38.31;101376.47;4973738;28;20060;-67
2022/04/04 05:04:04;;;;;;;7.05;3.28;;;;;;;11.30;37.97;101376.25;4973851;28;20047;-67
2022/04/04 05:06:30;;;;;;;6.15;3.40;;;;;;;11.30;37.72;101376.25;4973878;28;20030;-67
2022/04/04 05:08:57;;;;;;;6.85;3.35;;;;;;;11.31;37.87;101372.56;4973791;28;20038;-67
2022/04/04 05:11:23;;;;;;;6.95;3.15;;;;;;;11.33;37.87;101368.81;4972902;28;20416;-67
2022/04/04 05:13:48;;;;;;;7.45;3.33;;;;;;;11.34;38.00;101367.81;4962987;28;20086;-67
2022/04/04 05:16:14;;;;;;;4.82;2.83;;;;;;;11.35;37.71;101368.69;4954392;28;20485;-67
2022/04/04 05:18:43;;;;;;;6.72;3.47;;;;;;;11.36;37.68;101365.03;4953901;28;20069;-67
2022/04/04 05:21:09;;;;;;;5.40;3.28;;;;;;;11.39;38.12;101359.44;4953285;29;20119;-67
2022/04/04 05:23:35;;;;;;;5.85;3.22;;;;;;;11.40;38.13;101350.41;4954697;28;20470;-68
2022/04/04 05:26:00;;;;;;;6.10;3.35;;;;;;;11.40;38.40;101339.66;4921649;29;20051;-67
2022/04/04 05:28:26;;;;;;;9.20;3.92;;;;;;;11.41;37.94;101341.38;4954392;28;20524;-68
2022/04/04 05:30:51;;;;;;;9.00;3.75;;;;;;;11.41;38.49;101331.53;4954437;28;20059;-67
2022/04/04 05:33:16;;;;;;;9.73;2.72;;;;;;;11.47;38.00;101338.22;4954490;28;20029;-67
2022/04/04 05:35:42;;;;;;;7.47;3.53;;;;;;;11.45;37.91;101338.31;4954812;28;20078;-68
2022/04/04 05:38:07;;;;;;;6.50;3.45;;;;;;;11.47;38.49;101328.31;4955280;28;20027;-68
2022/04/04 05:40:34;;;;;;;9.40;3.22;;;;;;;11.47;38.15;101335.53;4958473;28;20466;-68
2022/04/04 05:43:00;;;;;;;7.85;3.88;;;;;;;11.47;38.60;101316.75;4972492;28;20106;-68
2022/04/04 05:45:26;;;;;;;6.20;3.35;;;;;;;11.47;38.27;101320.28;4973557;28;20054;-68
2022/04/04 05:47:52;;;;;;;9.63;2.95;;;;;;;11.49;38.36;101322.84;4973671;28;20070;-68
2022/04/04 05:50:18;;;;;;;7.18;3.13;;;;;;;11.51;38.24;101315.53;4973575;28;20045;-67
2022/04/04 05:52:44;;;;;;;6.18;3.47;;;;;;;11.55;38.73;101311.63;4972276;28;20158;-67
2022/04/04 05:55:10;;;;;;;4.93;3.00;;;;;;;11.58;38.41;101309.56;4973733;28;20110;-67
2022/04/04 05:57:38;;;;;;;6.53;3.65;;;;;;;11.64;38.08;101310.88;4973534;28;20134;-67
2022/04/04 06:00:10;;;;;;;8.32;2.80;;;;;;;11.70;37.98;101305.03;4973538;28;20041;-67
2022/04/04 06:02:41;;;;;;;6.00;3.10;;;;;;;11.78;37.97;101291.84;4972330;28;20081;-68
2022/04/04 06:05:09;;;;;;;11.27;3.60;;;;;;;11.86;37.01;101286.72;4973374;28;20030;-68
2022/04/04 06:07:36;;;;;;;10.18;3.65;;;;;;;12.02;37.85;101281.78;4973364;28;20504;-67
2022/04/04 06:10:03;;;;;;;5.13;2.97;;;;;;;12.19;37.65;101275.00;4952777;28;20024;-67
2022/04/04 06:12:29;;;;;;;6.72;3.33;;;;;;;12.33;37.71;101271.16;4954181;28;20401;-68
2022/04/04 06:14:54;;;;;;;6.57;3.35;;;;;;;12.37;37.57;101264.56;4952824;29;20034;-68
2022/04/04 06:17:19;;;;;;;9.98;3.45;;;;;;;12.37;37.64;101256.50;4952757;29;20027;-68
2022/04/04 06:19:45;;;;;;;6.70;3.28;;;;;;;12.38;37.89;101259.03;4953993;29;20031;-68
2022/04/04 06:22:10;;;;;;;11.25;3.45;;;;;;;12.40;37.85;101245.47;4953651;29;20109;-68
2022/04/04 06:24:36;;;;;;;8.95;3.67;;;;;;;12.43;37.55;101245.19;4968638;28;20037;-68
2022/04/04 06:27:02;;;;;;;4.70;3.35;;;;;;;12.46;38.22;101247.63;4973109;28;20031;-68
2022/04/04 06:29:28;;;;;;;7.25;3.45;;;;;;;12.49;37.69;101244.69;4955773;28;20061;-67
2022/04/04 06:31:53;;;;;;;8.52;3.38;;;;;;;12.57;37.47;101242.19;4976463;28;20113;-68
2022/04/04 06:34:19;;;;;;;6.00;3.63;;;;;;;12.70;38.09;101238.31;4976775;28;20405;-67
2022/04/04 06:36:46;;;;;;;5.55;3.50;;;;;;;12.78;37.65;101218.84;4975120;28;20031;-68
2022/04/04 06:39:12;;;;;;;7.55;3.42;;;;;;;12.82;37.92;101221.13;4976588;28;20029;-67
2022/04/04 06:41:37;;;;;;;4.75;3.60;;;;;;;12.86;38.54;101200.22;4958986;28;20436;-68
2022/04/04 06:44:04;;;;;;;8.68;4.45;;;;;;;13.01;38.15;101209.59;4975044;28;20037;-67
2022/04/04 06:46:29;;;;;;;4.88;3.28;;;;;;;13.08;38.45;101202.72;4959153;28;20037;-67
2022/04/04 06:48:55;;;;;;;6.47;4.03;;;;;;;13.15;37.78;101192.28;4975211;28;20109;-68
2022/04/04 06:51:20;;;;;;;6.10;3.83;;;;;;;13.25;37.99;101190.47;4976139;28;20064;-67
2022/04/04 06:53:46;;;;;;;4.90;2.97;;;;;;;13.36;37.23;101188.53;4976188;28;20039;-68
2022/04/04 06:56:12;;;;;;;10.05;3.78;;;;;;;13.44;37.67;101190.50;4976228;28;20030;-68
2022/04/04 06:58:37;;;;;;;4.07;3.05;;;;;;;13.48;37.85;101180.31;4974678;28;20061;-68
2022/04/04 07:01:03;;;;;;;4.07;2.83;;;;;;;13.54;37.83;101174.41;4974840;28;20444;-67
2022/04/04 07:03:28;;;;;;;5.55;2.78;;;;;;;13.62;38.11;101171.84;4975930;28;20031;-68
2022/04/04 07:05:54;;;;;;;4.35;2.72;;;;;;;13.65;37.27;101171.56;4976033;28;20523;-68
2022/04/04 07:08:21;;;;;;;5.80;3.13;;;;;;;13.68;38.24;101160.53;4975794;28;20109;-68
2022/04/04 07:10:47;;;;;;;4.80;3.42;;;;;;;13.72;38.29;101157.41;4956575;28;20024;-68
2022/04/04 07:13:12;;;;;;;6.55;3.03;;;;;;;13.73;38.21;101158.25;4956471;28;20030;-67
2022/04/04 07:15:39;;;;;;;6.70;3.08;;;;;;;13.78;37.33;101154.16;4956746;28;20059;-68
2022/04/04 07:18:04;;;;;;;8.27;3.53;;;;;;;13.90;37.18;101144.09;4956326;28;20031;-68
2022/04/04 07:20:30;;;;;;;3.83;2.53;;;;;;;14.01;38.22;101141.25;4955195;29;20027;-67
2022/04/04 07:22:55;;;;;;;7.97;3.13;;;;;;;14.14;37.76;101141.78;4956229;28;20027;-68
2022/04/04 07:25:22;;;;;;;6.25;3.17;;;;;;;14.26;37.48;101137.94;4956494;28;20389;-66
2022/04/04 07:27:48;;;;;;;4.20;2.88;;;;;;;14.44;36.98;101133.50;4956855;28;20027;-66
2022/04/04 07:30:16;;;;;;;7.68;3.40;;;;;;;14.64;37.40;101136.13;4975793;28;20026;-66
2022/04/04 07:32:42;;;;;;;6.65;3.05;;;;;;;14.89;36.34;101127.38;4975450;28;20033;-66
2022/04/04 07:35:12;;;;;;;4.85;2.83;;;;;;;15.14;36.67;101127.50;4975284;28;20031;-67
2022/04/04 07:37:41;;;;;;;7.85;2.88;;;;;;;15.39;35.91;101122.38;4975371;28;20546;-66
2022/04/04 07:40:10;;;;;;;6.80;3.08;;;;;;;15.50;36.86;101122.19;4975283;28;20054;-66
2022/04/04 07:42:37;;;;;;;4.80;2.88;;;;;;;15.47;36.21;101112.53;4974872;28;20046;-66
2022/04/04 07:45:02;;;;;;;12.82;3.42;;;;;;;15.39;37.32;101115.13;4975246;28;20023;-66
2022/04/04 07:47:28;;;;;;;4.75;3.05;;;;;;;15.30;36.05;101116.03;4957772;28;20414;-67
2022/04/04 07:49:54;;;;;;;6.63;2.75;;;;;;;15.28;37.36;101111.78;4975186;28;20117;-66
2022/04/04 07:52:19;;;;;;;5.70;3.47;;;;;;;15.28;37.33;101107.25;4975292;28;20022;-66
2022/04/04 07:54:44;;;;;;;8.40;2.72;;;;;;;15.31;36.40;101106.09;4974934;28;20120;-66
2022/04/04 07:57:10;;;;;;;6.22;2.90;;;;;;;15.25;36.66;101096.75;4974868;28;20416;-67
2022/04/04 07:59:36;;;;;;;6.03;2.72;;;;;;;15.23;37.29;101085.28;4975256;28;20022;-66
2022/04/04 08:02:02;;;;;;;7.95;2.92;;;;;;;15.22;36.11;101090.81;4974899;28;20029;-66
2022/04/04 08:04:27;;;;;;;5.32;3.22;;;;;;;15.18;35.91;101084.88;4974812;28;20023;-66
2022/04/04 08:06:52;;;;;;;5.82;2.97;;;;;;;15.18;35.56;101076.78;4974826;28;20038;-66
2022/04/04 08:09:18;;;;;;;4.43;2.83;;;;;;;15.38;36.37;101074.81;4960087;28;20030;-66
2022/04/04 08:11:43;;;;;;;4.85;2.85;;;;;;;15.58;36.32;101063.69;4955587;28;20038;-66
2022/04/04 08:14:09;;;;;;;4.68;2.97;;;;;;;15.71;35.57;101060.63;4955280;28;20054;-65
2022/04/04 08:16:37;;;;;;;7.20;3.08;;;;;;;15.86;35.77;101041.97;4955597;28;20101;-66
2022/04/04 08:19:02;;;;;;;5.72;3.13;;;;;;;15.92;36.54;101053.00;4955340;28;20081;-66
2022/04/04 08:21:28;;;;;;;5.28;3.13;;;;;;;16.00;36.10;101038.69;4955556;28;20032;-66
2022/04/04 08:23:54;;;;;;;7.22;3.30;;;;;;;16.16;34.81;101034.22;4955311;28;20028;-66
2022/04/04 08:26:19;;;;;;;7.70;3.35;;;;;;;16.28;35.63;101032.09;4955078;29;20027;-66
2022/04/04 08:28:45;;;;;;;6.63;3.50;;;;;;;16.40;34.42;101014.59;4955425;28;20090;-66
2022/04/04 08:31:11;;;;;;;6.93;3.17;;;;;;;16.47;34.52;101021.03;4954934;28;20058;-67
2022/04/04 08:33:37;;;;;;;4.90;3.08;;;;;;;16.56;34.28;101025.50;4960894;28;20030;-66
2022/04/04 08:36:04;;;;;;;8.10;3.63;;;;;;;16.68;35.65;101021.50;4974307;28;20054;-66
2022/04/04 08:38:30;;;;;;;7.43;3.47;;;;;;;16.80;34.54;101016.66;4974333;28;20042;-66
2022/04/04 08:40:59;;;;;;;6.80;3.28;;;;;;;16.94;35.09;101002.47;4974463;28;20023;-67
2022/04/04 08:43:27;;;;;;;7.68;3.38;;;;;;;17.05;34.99;100988.63;4974014;28;20026;-65
2022/04/04 08:45:53;;;;;;;8.60;3.55;;;;;;;17.08;35.48;100982.88;4956639;28;20031;-66
2022/04/04 08:48:19;;;;;;;10.75;3.22;;;;;;;17.21;34.84;100983.22;4972903;28;20042;-66
2022/04/04 08:50:44;;;;;;;7.38;4.25;;;;;;;17.30;34.78;100986.78;4974467;28;20439;-66
2022/04/04 08:53:10;;;;;;;8.35;3.53;;;;;;;17.32;34.08;100982.03;4973318;28;20121;-66
2022/04/04 08:55:35;;;;;;;10.93;3.55;;;;;;;17.31;34.63;100977.63;4974077;28;20065;-66
2022/04/04 08:58:02;;;;;;;6.88;3.83;;;;;;;17.26;35.47;100993.53;4974008;28;20050;-67
2022/04/04 09:00:27;;;;;;;8.93;3.97;;;;;;;17.21;33.72;100972.41;4974048;28;20105;-67
2022/04/04 09:03:04;;;;;;;11.00;3.65;;;;;;;17.20;33.77;100969.84;4972680;28;20588;-66
2022/04/04 09:05:50;;;;;;;6.30;2.85;;;;;;;17.08;34.89;100965.78;4973882;28;20089;-66
2022/04/04 09:08:15;;;;;;;7.30;3.85;;;;;;;17.06;34.55;100962.38;4974012;28;20103;-65
2022/04/04 09:10:43;;;;;;;6.10;3.50;;;;;;;16.96;34.17;100956.28;4973949;28;20071;-66
2022/04/04 09:13:16;;;;;;;8.32;3.80;;;;;;;16.87;34.57;100950.88;4973997;28;20031;-66
2022/04/04 09:15:54;;;;;;;6.47;3.63;;;;;;;16.78;35.71;100946.47;4973682;28;20089;-66
2022/04/04 09:18:40;;;;;;;7.10;3.85;;;;;;;16.70;34.42;100940.19;4973790;28;20026;-66
2022/04/04 09:21:26;;;;;;;6.53;3.63;;;;;;;16.60;34.50;100937.63;4973722;28;20031;-66
2022/04/04 09:23:54;;;;;;;8.88;4.10;;;;;;;16.52;35.57;100953.81;4973302;28;20456;-65
2022/04/04 09:26:32;;;;;;;7.43;4.15;;;;;;;16.50;36.14;100944.19;4972508;28;20027;-66
2022/04/04 09:29:18;;;;;;;10.35;4.15;;;;;;;16.53;34.58;100936.59;4973876;28;20034;-66
2022/04/04 09:31:55;;;;;;;9.10;3.88;;;;;;;16.52;34.74;100937.59;4973589;28;20019;-66
2022/04/04 09:34:20;;;;;;;7.68;3.45;;;;;;;16.43;35.96;100927.75;4973718;28;20110;-66
2022/04/04 09:36:47;;;;;;;10.15;3.88;;;;;;;16.33;35.60;100924.34;4973818;28;20512;-66
2022/04/04 09:39:14;;;;;;;9.15;4.18;;;;;;;16.20;35.46;100940.16;4973723;28;20027;-66
2022/04/04 09:41:39;;;;;;;8.27;3.78;;;;;;;16.11;36.57;100949.25;4956407;28;20484;-66
2022/04/04 09:44:05;;;;;;;7.00;3.30;;;;;;;16.00;35.44;100919.81;4973388;28;20027;-66
2022/04/04 09:46:32;;;;;;;9.27;4.13;;;;;;;15.89;35.96;100922.78;4973363;28;20094;-66
2022/04/04 09:49:00;;;;;;;8.73;4.00;;;;;;;15.76;36.04;100933.19;4973683;28;20058;-66
2022/04/04 09:51:35;;;;;;;7.72;4.18;;;;;;;15.66;36.92;100920.63;4973668;28;20480;-66
2022/04/04 09:54:05;;;;;;;5.90;3.53;;;;;;;15.63;35.63;100917.44;4961652;28;20026;-66
2022/04/04 09:56:31;;;;;;;10.80;4.18;;;;;;;15.57;37.04;100907.25;4954154;28;20023;-66
2022/04/04 09:58:58;;;;;;;10.82;4.40;;;;;;;15.52;35.96;100915.81;4952789;29;20054;-66
2022/04/04 10:01:24;;;;;;;7.75;4.40;;;;;;;15.51;36.21;100913.28;4953912;28;20549;-67
2022/04/04 10:03:51;;;;;;;8.60;4.32;;;;;;;15.50;37.29;100906.19;4954436;28;20106;-66
2022/04/04 10:06:18;;;;;;;8.02;4.30;;;;;;;15.48;36.75;100914.47;4956406;29;20027;-65
2022/04/04 10:08:44;;;;;;;10.80;4.40;;;;;;;15.40;37.63;100906.28;4965960;28;20061;-66
2022/04/04 10:11:09;;;;;;;9.32;4.95;;;;;;;15.42;37.31;100898.84;4975669;28;20062;-67
2022/04/04 10:13:36;;;;;;;9.15;4.47;;;;;;;15.43;37.39;100899.72;4977006;28;20023;-67
2022/04/04 10:16:01;;;;;;;19.98;4.18;;;;;;;15.39;36.80;100899.16;4976847;28;20076;-67
2022/04/04 10:18:27;;;;;;;8.80;4.55;;;;;;;15.43;36.86;100880.81;4977036;28;20109;-66
2022/04/04 10:20:55;;;;;;;9.48;4.18;;;;;;;15.43;37.11;100884.38;4975577;28;20030;-67
2022/04/04 10:23:22;;;;;;;6.45;3.75;;;;;;;15.42;37.92;100882.66;4977003;28;20366;-66
2022/04/04 10:25:52;;;;;;;6.93;4.28;;;;;;;15.39;37.62;100868.63;4975392;28;20030;-66
2022/04/04 10:28:33;;;;;;;4.80;3.70;;;;;;;15.29;37.28;100882.25;4975385;28;20031;-66
2022/04/04 10:31:00;;;;;;;6.13;3.90;;;;;;;15.15;37.28;100888.22;4976447;28;20035;-67
2022/04/04 10:33:26;;;;;;;5.30;3.47;;;;;;;15.02;37.51;100882.34;4975270;28;20066;-66
2022/04/04 10:36:02;;;;;;;5.03;3.67;;;;;;;14.92;37.70;100878.91;4976613;28;20063;-66
2022/04/04 10:38:31;;;;;;;4.43;3.28;;;;;;;14.81;38.19;100879.16;4976252;28;20027;-65
2022/04/04 10:40:56;;;;;;;5.82;3.92;;;;;;;14.74;38.59;100876.22;4976363;28;20046;-66
2022/04/04 10:43:21;;;;;;;5.68;3.53;;;;;;;14.69;38.81;100869.59;4975047;28;20039;-66
2022/04/04 10:45:58;;;;;;;6.20;3.75;;;;;;;14.66;39.18;100867.19;4976344;28;20030;-66
2022/04/04 10:48:31;;;;;;;5.45;3.70;;;;;;;14.60;38.79;100867.84;4976655;28;20062;-66
2022/04/04 10:51:15;;;;;;;7.60;3.92;;;;;;;14.54;38.43;100859.34;4976236;28;20558;-66
2022/04/04 10:53:49;;;;;;;6.68;3.53;;;;;;;14.42;39.24;100849.81;4974966;28;20044;-66
2022/04/04 10:56:22;;;;;;;6.68;3.28;;;;;;;14.32;39.01;100854.41;4976424;28;20069;-66
2022/04/04 10:58:50;;;;;;;8.50;3.40;;;;;;;14.27;40.06;100859.38;4976327;28;20046;-66
2022/04/04 11:01:17;;;;;;;10.05;3.97;;;;;;;14.23;39.44;100868.78;4975915;28;20504;-66
2022/04/04 11:03:57;;;;;;;5.40;3.63;;;;;;;14.16;40.40;100843.44;4974522;28;20030;-66
2022/04/04 11:09:32;;;;;;;6.97;3.33;;;;;;;14.10;40.19;100854.81;4975810;28;20038;-66
2022/04/04 11:12:00;;;;;;;8.00;3.17;;;;;;;14.11;39.29;100851.13;4975111;28;20468;-65
2022/04/04 11:14:31;;;;;;;6.85;3.83;;;;;;;14.07;39.80;100843.53;4975998;28;20534;-66
2022/04/04 11:17:08;;;;;;;3.83;2.67;;;;;;;14.00;40.00;100845.94;4975195;28;20388;-66
2022/04/04 11:19:49;;;;;;;3.55;2.63;;;;;;;13.95;40.26;100835.66;4976137;28;20153;-66
2022/04/04 11:22:15;;;;;;;5.35;3.40;;;;;;;13.91;39.72;100850.41;4975693;28;20023;-66
2022/04/04 11:24:42;;;;;;;5.50;3.53;;;;;;;13.90;39.96;100847.88;4975507;28;20165;-66
2022/04/04 11:27:08;;;;;;;3.92;3.03;;;;;;;13.89;40.74;100846.16;4975608;28;20050;-65
2022/04/04 11:29:36;;;;;;;4.65;3.40;;;;;;;13.84;39.97;100843.06;4975698;28;20500;-65
2022/04/04 11:32:02;;;;;;;6.35;3.35;;;;;;;13.82;40.55;100839.66;4974129;28;20038;-66